PWSweather.com
Personal Weather Stations
Station Observations
WD4JKH
Forsyth, GA 31029

Forsyth, GA 31029

Lat: 33.033225, Lon: -83.927995

Elevation: 709

Station Type: Davis Vantage VUE

High Low Average
Temperature 78.1°F25.6°C 58.7°F14.8°C 68.2°F20.1°C
Dew Point 64.5°F18.1°C 56.0°F13.3°C 59.7°F15.4°C
Winds 7.8 mph 12.6 kmh Calm Calm 2.0 mph SW3.2 kmh SW
Wind Gusts 21.0 mph33.8 kmh 2.0 mph3.2 kmh 8.0 mph12.9 kmh
Humidity 94% 57% 75%
Pressure 29.97 in1014.9 mb 29.80 in1009.1 mb -
Precipitation 0.02 in0.5 mm - -
Hour Temp Dew Point Humidity Winds Wind Gusts Pressure Precip Precip Rate Daily Precip Total
12:04 AM 65.0°F18.3°C 56.3°F13.5°C 73% 3.1 mph SW5.0 kmh SW 7.0 mph11.3 kmh 29.96 in1014.6 mb 0.00 in0.0 mm 0.00 in0.0 mm 0.00 in0.0 mm
12:09 AM 64.9°F18.3°C 56.2°F13.4°C 73% 2.4 mph SW3.9 kmh SW 7.0 mph11.3 kmh 29.96 in1014.6 mb 0.00 in0.0 mm 0.00 in0.0 mm 0.00 in0.0 mm
12:14 AM 64.9°F18.3°C 56.2°F13.4°C 73% 2.5 mph SW4.0 kmh SW 8.0 mph12.9 kmh 29.96 in1014.6 mb 0.00 in0.0 mm 0.00 in0.0 mm 0.00 in0.0 mm
12:19 AM 65.0°F18.3°C 56.3°F13.5°C 73% 1.8 mph SW2.9 kmh SW 8.0 mph12.9 kmh 29.96 in1014.6 mb 0.00 in0.0 mm 0.00 in0.0 mm 0.00 in0.0 mm
12:24 AM 64.8°F18.2°C 56.4°F13.6°C 74% 2.7 mph SW4.3 kmh SW 8.0 mph12.9 kmh 29.96 in1014.6 mb 0.00 in0.0 mm 0.00 in0.0 mm 0.00 in0.0 mm
12:29 AM 64.5°F18.1°C 56.2°F13.4°C 74% 2.4 mph SW3.9 kmh SW 8.0 mph12.9 kmh 29.96 in1014.6 mb 0.00 in0.0 mm 0.00 in0.0 mm 0.00 in0.0 mm
12:34 AM 64.4°F18.0°C 56.4°F13.6°C 75% 3.5 mph SW5.6 kmh SW 7.0 mph11.3 kmh 29.95 in1014.2 mb 0.00 in0.0 mm 0.00 in0.0 mm 0.00 in0.0 mm
12:39 AM 64.3°F17.9°C 56.3°F13.5°C 75% 2.9 mph SW4.7 kmh SW 7.0 mph11.3 kmh 29.95 in1014.2 mb 0.00 in0.0 mm 0.00 in0.0 mm 0.00 in0.0 mm
12:44 AM 64.2°F17.9°C 56.2°F13.4°C 75% 2.4 mph SW3.9 kmh SW 7.0 mph11.3 kmh 29.96 in1014.6 mb 0.00 in0.0 mm 0.00 in0.0 mm 0.00 in0.0 mm
12:49 AM 64.2°F17.9°C 56.6°F13.7°C 76% 3.3 mph WSW5.3 kmh WSW 8.0 mph12.9 kmh 29.95 in1014.2 mb 0.00 in0.0 mm 0.00 in0.0 mm 0.00 in0.0 mm
12:54 AM 64.2°F17.9°C 56.6°F13.7°C 76% 2.9 mph SW4.7 kmh SW 8.0 mph12.9 kmh 29.95 in1014.2 mb 0.00 in0.0 mm 0.00 in0.0 mm 0.00 in0.0 mm
12:59 AM 64.3°F17.9°C 56.7°F13.7°C 76% 3.3 mph WSW5.3 kmh WSW 8.0 mph12.9 kmh 29.95 in1014.2 mb 0.00 in0.0 mm 0.00 in0.0 mm 0.00 in0.0 mm
01:04 AM 64.3°F17.9°C 56.7°F13.7°C 76% 2.2 mph WSW3.5 kmh WSW 9.0 mph14.5 kmh 29.95 in1014.2 mb 0.00 in0.0 mm 0.00 in0.0 mm 0.00 in0.0 mm
01:09 AM 64.2°F17.9°C 56.9°F13.8°C 77% 2.4 mph SW3.9 kmh SW 9.0 mph14.5 kmh 29.94 in1013.9 mb 0.00 in0.0 mm 0.00 in0.0 mm 0.00 in0.0 mm
01:14 AM 64.1°F17.8°C 56.7°F13.7°C 77% 3.0 mph WSW4.8 kmh WSW 10.0 mph16.1 kmh 29.94 in1013.9 mb 0.00 in0.0 mm 0.00 in0.0 mm 0.00 in0.0 mm
01:19 AM 64.1°F17.8°C 56.7°F13.7°C 77% 3.3 mph WSW5.3 kmh WSW 10.0 mph16.1 kmh 29.94 in1013.9 mb 0.00 in0.0 mm 0.00 in0.0 mm 0.00 in0.0 mm
01:24 AM 63.9°F17.7°C 56.9°F13.8°C 78% 2.3 mph SW3.7 kmh SW 10.0 mph16.1 kmh 29.94 in1013.9 mb 0.00 in0.0 mm 0.00 in0.0 mm 0.00 in0.0 mm
01:29 AM 63.8°F17.7°C 56.8°F13.8°C 78% 2.6 mph SW4.2 kmh SW 10.0 mph16.1 kmh 29.94 in1013.9 mb 0.00 in0.0 mm 0.00 in0.0 mm 0.00 in0.0 mm
01:34 AM 63.7°F17.6°C 57.1°F13.9°C 79% 2.8 mph WSW4.5 kmh WSW 7.0 mph11.3 kmh 29.94 in1013.9 mb 0.00 in0.0 mm 0.00 in0.0 mm 0.00 in0.0 mm
01:39 AM 63.6°F17.6°C 57.0°F13.9°C 79% 2.0 mph WSW3.2 kmh WSW 7.0 mph11.3 kmh 29.94 in1013.9 mb 0.00 in0.0 mm 0.00 in0.0 mm 0.00 in0.0 mm
01:44 AM 63.5°F17.5°C 56.9°F13.8°C 79% 1.9 mph WSW3.1 kmh WSW 7.0 mph11.3 kmh 29.94 in1013.9 mb 0.00 in0.0 mm 0.00 in0.0 mm 0.00 in0.0 mm
01:49 AM 63.5°F17.5°C 56.9°F13.8°C 79% 2.6 mph WSW4.2 kmh WSW 7.0 mph11.3 kmh 29.94 in1013.9 mb 0.00 in0.0 mm 0.00 in0.0 mm 0.00 in0.0 mm
01:54 AM 63.5°F17.5°C 57.3°F14.1°C 80% 1.7 mph WSW2.7 kmh WSW 9.0 mph14.5 kmh 29.94 in1013.9 mb 0.00 in0.0 mm 0.00 in0.0 mm 0.00 in0.0 mm
01:59 AM 63.3°F17.4°C 57.1°F13.9°C 80% 2.8 mph SW4.5 kmh SW 9.0 mph14.5 kmh 29.94 in1013.9 mb 0.00 in0.0 mm 0.00 in0.0 mm 0.00 in0.0 mm
02:04 AM 63.1°F17.3°C 56.9°F13.8°C 80% 1.8 mph SW2.9 kmh SW 9.0 mph14.5 kmh 29.94 in1013.9 mb 0.00 in0.0 mm 0.00 in0.0 mm 0.00 in0.0 mm
02:09 AM 62.9°F17.2°C 57.0°F13.9°C 81% 1.6 mph SW2.6 kmh SW 9.0 mph14.5 kmh 29.94 in1013.9 mb 0.00 in0.0 mm 0.00 in0.0 mm 0.00 in0.0 mm
02:14 AM 62.7°F17.1°C 56.8°F13.8°C 81% 2.6 mph SW4.2 kmh SW 7.0 mph11.3 kmh 29.94 in1013.9 mb 0.00 in0.0 mm 0.00 in0.0 mm 0.00 in0.0 mm
02:19 AM 62.5°F16.9°C 57.0°F13.9°C 82% 2.3 mph SW3.7 kmh SW 7.0 mph11.3 kmh 29.94 in1013.9 mb 0.00 in0.0 mm 0.00 in0.0 mm 0.00 in0.0 mm
02:24 AM 62.4°F16.9°C 56.9°F13.8°C 82% 2.0 mph SW3.2 kmh SW 7.0 mph11.3 kmh 29.94 in1013.9 mb 0.00 in0.0 mm 0.00 in0.0 mm 0.00 in0.0 mm
02:29 AM 62.4°F16.9°C 56.9°F13.8°C 82% 2.1 mph WSW3.4 kmh WSW 7.0 mph11.3 kmh 29.93 in1013.5 mb 0.00 in0.0 mm 0.00 in0.0 mm 0.00 in0.0 mm
02:34 AM 62.3°F16.8°C 56.8°F13.8°C 82% 1.7 mph WSW2.7 kmh WSW 8.0 mph12.9 kmh 29.93 in1013.5 mb 0.00 in0.0 mm 0.00 in0.0 mm 0.00 in0.0 mm
02:39 AM 62.1°F16.7°C 56.9°F13.8°C 83% 1.5 mph WSW2.4 kmh WSW 8.0 mph12.9 kmh 29.93 in1013.5 mb 0.00 in0.0 mm 0.00 in0.0 mm 0.00 in0.0 mm
02:44 AM 61.9°F16.6°C 56.7°F13.7°C 83% 1.7 mph SW2.7 kmh SW 8.0 mph12.9 kmh 29.93 in1013.5 mb 0.00 in0.0 mm 0.00 in0.0 mm 0.00 in0.0 mm
02:49 AM 61.8°F16.6°C 56.6°F13.7°C 83% 2.3 mph WSW3.7 kmh WSW 5.0 mph8.0 kmh 29.93 in1013.5 mb 0.00 in0.0 mm 0.00 in0.0 mm 0.00 in0.0 mm
02:54 AM 61.7°F16.5°C 56.8°F13.8°C 84% 1.6 mph WSW2.6 kmh WSW 5.0 mph8.0 kmh 29.93 in1013.5 mb 0.00 in0.0 mm 0.00 in0.0 mm 0.00 in0.0 mm
02:59 AM 61.6°F16.4°C 56.7°F13.7°C 84% 1.8 mph WSW2.9 kmh WSW 4.0 mph6.4 kmh 29.93 in1013.5 mb 0.00 in0.0 mm 0.00 in0.0 mm 0.00 in0.0 mm
03:04 AM 61.5°F16.4°C 56.6°F13.7°C 84% 2.4 mph SW3.9 kmh SW 4.0 mph6.4 kmh 29.93 in1013.5 mb 0.00 in0.0 mm 0.00 in0.0 mm 0.00 in0.0 mm
03:09 AM 61.6°F16.4°C 57.1°F13.9°C 85% 2.0 mph WSW3.2 kmh WSW 4.0 mph6.4 kmh 29.93 in1013.5 mb 0.00 in0.0 mm 0.00 in0.0 mm 0.00 in0.0 mm
03:14 AM 61.4°F16.3°C 56.9°F13.8°C 85% 2.5 mph SW4.0 kmh SW 5.0 mph8.0 kmh 29.93 in1013.5 mb 0.00 in0.0 mm 0.00 in0.0 mm 0.00 in0.0 mm
03:19 AM 61.2°F16.2°C 56.7°F13.7°C 85% 1.0 mph SW1.6 kmh SW 5.0 mph8.0 kmh 29.93 in1013.5 mb 0.00 in0.0 mm 0.00 in0.0 mm 0.00 in0.0 mm
03:24 AM 61.1°F16.2°C 56.6°F13.7°C 85% 1.5 mph SW2.4 kmh SW 5.0 mph8.0 kmh 29.93 in1013.5 mb 0.00 in0.0 mm 0.00 in0.0 mm 0.00 in0.0 mm
03:29 AM 61.0°F16.1°C 56.8°F13.8°C 86% 1.9 mph WSW3.1 kmh WSW 5.0 mph8.0 kmh 29.93 in1013.5 mb 0.00 in0.0 mm 0.00 in0.0 mm 0.00 in0.0 mm
03:33 AM 60.9°F16.1°C 56.7°F13.7°C 86% 1.1 mph WSW1.8 kmh WSW 4.0 mph6.4 kmh 29.93 in1013.5 mb 0.00 in0.0 mm 0.00 in0.0 mm 0.00 in0.0 mm
03:38 AM 60.8°F16.0°C 56.6°F13.7°C 86% 1.0 mph WSW1.6 kmh WSW 4.0 mph6.4 kmh 29.93 in1013.5 mb 0.00 in0.0 mm 0.00 in0.0 mm 0.00 in0.0 mm
03:43 AM 60.7°F15.9°C 56.5°F13.6°C 86% 1.4 mph WSW2.3 kmh WSW 3.0 mph4.8 kmh 29.93 in1013.5 mb 0.00 in0.0 mm 0.00 in0.0 mm 0.00 in0.0 mm
03:48 AM 60.7°F15.9°C 56.8°F13.8°C 87% 1.0 mph WSW1.6 kmh WSW 4.0 mph6.4 kmh 29.93 in1013.5 mb 0.00 in0.0 mm 0.00 in0.0 mm 0.00 in0.0 mm
03:53 AM 60.6°F15.9°C 56.7°F13.7°C 87% 1.2 mph WSW1.9 kmh WSW 4.0 mph6.4 kmh 29.93 in1013.5 mb 0.00 in0.0 mm 0.00 in0.0 mm 0.00 in0.0 mm
03:58 AM 60.5°F15.8°C 56.6°F13.7°C 87% 2.0 mph SW3.2 kmh SW 5.0 mph8.0 kmh 29.93 in1013.5 mb 0.00 in0.0 mm 0.00 in0.0 mm 0.00 in0.0 mm
04:03 AM 60.4°F15.8°C 56.5°F13.6°C 87% 1.5 mph SW2.4 kmh SW 5.0 mph8.0 kmh 29.93 in1013.5 mb 0.00 in0.0 mm 0.00 in0.0 mm 0.00 in0.0 mm
04:08 AM 60.4°F15.8°C 56.8°F13.8°C 88% 2.3 mph WSW3.7 kmh WSW 6.0 mph9.7 kmh 29.93 in1013.5 mb 0.00 in0.0 mm 0.00 in0.0 mm 0.00 in0.0 mm
04:13 AM 60.5°F15.8°C 56.9°F13.8°C 88% 1.6 mph WSW2.6 kmh WSW 6.0 mph9.7 kmh 29.93 in1013.5 mb 0.00 in0.0 mm 0.00 in0.0 mm 0.00 in0.0 mm
04:18 AM 60.4°F15.8°C 56.8°F13.8°C 88% 1.6 mph WSW2.6 kmh WSW 6.0 mph9.7 kmh 29.93 in1013.5 mb 0.00 in0.0 mm 0.00 in0.0 mm 0.00 in0.0 mm
04:23 AM 60.4°F15.8°C 56.8°F13.8°C 88% 1.6 mph WSW2.6 kmh WSW 6.0 mph9.7 kmh 29.93 in1013.5 mb 0.00 in0.0 mm 0.00 in0.0 mm 0.00 in0.0 mm
04:28 AM 60.3°F15.7°C 56.7°F13.7°C 88% 1.3 mph WSW2.1 kmh WSW 6.0 mph9.7 kmh 29.93 in1013.5 mb 0.00 in0.0 mm 0.00 in0.0 mm 0.00 in0.0 mm
04:33 AM 60.2°F15.7°C 56.6°F13.7°C 88% 1.9 mph WSW3.1 kmh WSW 6.0 mph9.7 kmh 29.93 in1013.5 mb 0.00 in0.0 mm 0.00 in0.0 mm 0.00 in0.0 mm
04:38 AM 60.2°F15.7°C 56.6°F13.7°C 88% 2.3 mph WSW3.7 kmh WSW 5.0 mph8.0 kmh 29.93 in1013.5 mb 0.00 in0.0 mm 0.00 in0.0 mm 0.00 in0.0 mm
04:43 AM 60.2°F15.7°C 56.6°F13.7°C 88% 1.7 mph SW2.7 kmh SW 6.0 mph9.7 kmh 29.93 in1013.5 mb 0.00 in0.0 mm 0.00 in0.0 mm 0.00 in0.0 mm
04:48 AM 60.3°F15.7°C 56.7°F13.7°C 88% 1.5 mph WSW2.4 kmh WSW 6.0 mph9.7 kmh 29.93 in1013.5 mb 0.00 in0.0 mm 0.00 in0.0 mm 0.00 in0.0 mm
04:53 AM 60.3°F15.7°C 56.7°F13.7°C 88% 2.0 mph WSW3.2 kmh WSW 6.0 mph9.7 kmh 29.93 in1013.5 mb 0.00 in0.0 mm 0.00 in0.0 mm 0.00 in0.0 mm
04:58 AM 60.2°F15.7°C 56.6°F13.7°C 88% 1.3 mph SW2.1 kmh SW 6.0 mph9.7 kmh 29.93 in1013.5 mb 0.00 in0.0 mm 0.00 in0.0 mm 0.00 in0.0 mm
05:03 AM 60.2°F15.7°C 56.6°F13.7°C 88% 1.9 mph WSW3.1 kmh WSW 6.0 mph9.7 kmh 29.93 in1013.5 mb 0.00 in0.0 mm 0.00 in0.0 mm 0.00 in0.0 mm
05:08 AM 60.1°F15.6°C 56.5°F13.6°C 88% 1.6 mph WSW2.6 kmh WSW 6.0 mph9.7 kmh 29.93 in1013.5 mb 0.00 in0.0 mm 0.00 in0.0 mm 0.00 in0.0 mm
05:13 AM 60.0°F15.6°C 56.7°F13.7°C 89% 1.4 mph WSW2.3 kmh WSW 4.0 mph6.4 kmh 29.94 in1013.9 mb 0.00 in0.0 mm 0.00 in0.0 mm 0.00 in0.0 mm
05:18 AM 59.9°F15.5°C 56.6°F13.7°C 89% 1.5 mph WSW2.4 kmh WSW 4.0 mph6.4 kmh 29.94 in1013.9 mb 0.00 in0.0 mm 0.00 in0.0 mm 0.00 in0.0 mm
05:23 AM 59.8°F15.4°C 56.6°F13.7°C 89% 2.4 mph WSW3.9 kmh WSW 4.0 mph6.4 kmh 29.94 in1013.9 mb 0.00 in0.0 mm 0.00 in0.0 mm 0.00 in0.0 mm
05:28 AM 59.7°F15.4°C 56.5°F13.6°C 89% 1.5 mph WSW2.4 kmh WSW 4.0 mph6.4 kmh 29.94 in1013.9 mb 0.00 in0.0 mm 0.00 in0.0 mm 0.00 in0.0 mm
05:33 AM 59.5°F15.3°C 56.2°F13.4°C 89% 1.7 mph WSW2.7 kmh WSW 4.0 mph6.4 kmh 29.94 in1013.9 mb 0.00 in0.0 mm 0.00 in0.0 mm 0.00 in0.0 mm
05:38 AM 59.5°F15.3°C 56.2°F13.4°C 89% 1.0 mph WSW1.6 kmh WSW 4.0 mph6.4 kmh 29.94 in1013.9 mb 0.00 in0.0 mm 0.00 in0.0 mm 0.00 in0.0 mm
05:43 AM 59.2°F15.1°C 56.2°F13.4°C 90% 2.1 mph WSW3.4 kmh WSW 4.0 mph6.4 kmh 29.95 in1014.2 mb 0.00 in0.0 mm 0.00 in0.0 mm 0.00 in0.0 mm
05:48 AM 59.2°F15.1°C 56.2°F13.4°C 90% 1.8 mph WSW2.9 kmh WSW 4.0 mph6.4 kmh 29.95 in1014.2 mb 0.00 in0.0 mm 0.00 in0.0 mm 0.00 in0.0 mm
05:53 AM 59.1°F15.1°C 56.1°F13.4°C 90% 1.0 mph SW1.6 kmh SW 4.0 mph6.4 kmh 29.95 in1014.2 mb 0.00 in0.0 mm 0.00 in0.0 mm 0.00 in0.0 mm
05:58 AM 58.9°F14.9°C 56.2°F13.4°C 91% 2.0 mph WSW3.2 kmh WSW 4.0 mph6.4 kmh 29.95 in1014.2 mb 0.00 in0.0 mm 0.00 in0.0 mm 0.00 in0.0 mm
06:03 AM 58.7°F14.8°C 56.0°F13.3°C 91% 1.5 mph WSW2.4 kmh WSW 4.0 mph6.4 kmh 29.95 in1014.2 mb 0.00 in0.0 mm 0.00 in0.0 mm 0.00 in0.0 mm
06:08 AM 58.7°F14.8°C 56.0°F13.3°C 91% 2.1 mph WSW3.4 kmh WSW 4.0 mph6.4 kmh 29.95 in1014.2 mb 0.00 in0.0 mm 0.00 in0.0 mm 0.00 in0.0 mm
06:13 AM 58.8°F14.9°C 56.1°F13.4°C 91% 1.4 mph WSW2.3 kmh WSW 4.0 mph6.4 kmh 29.95 in1014.2 mb 0.00 in0.0 mm 0.00 in0.0 mm 0.00 in0.0 mm
06:18 AM 58.8°F14.9°C 56.1°F13.4°C 91% 1.5 mph WSW2.4 kmh WSW 4.0 mph6.4 kmh 29.95 in1014.2 mb 0.00 in0.0 mm 0.00 in0.0 mm 0.00 in0.0 mm
06:23 AM 59.1°F15.1°C 56.4°F13.6°C 91% 1.0 mph SW1.6 kmh SW 4.0 mph6.4 kmh 29.95 in1014.2 mb 0.00 in0.0 mm 0.00 in0.0 mm 0.00 in0.0 mm
06:28 AM 59.4°F15.2°C 56.7°F13.7°C 91% 1.0 mph WSW1.6 kmh WSW 3.0 mph4.8 kmh 29.95 in1014.2 mb 0.00 in0.0 mm 0.00 in0.0 mm 0.00 in0.0 mm
06:33 AM 59.7°F15.4°C 56.7°F13.7°C 90% 1.0 mph WSW1.6 kmh WSW 3.0 mph4.8 kmh 29.96 in1014.6 mb 0.00 in0.0 mm 0.00 in0.0 mm 0.00 in0.0 mm
06:38 AM 59.9°F15.5°C 56.9°F13.8°C 90% 1.0 mph WSW1.6 kmh WSW 3.0 mph4.8 kmh 29.96 in1014.6 mb 0.00 in0.0 mm 0.00 in0.0 mm 0.00 in0.0 mm
06:43 AM 60.2°F15.7°C 57.3°F14.1°C 90% 1.7 mph WSW2.7 kmh WSW 3.0 mph4.8 kmh 29.96 in1014.6 mb 0.00 in0.0 mm 0.00 in0.0 mm 0.00 in0.0 mm
06:48 AM 60.5°F15.8°C 57.2°F14.0°C 89% 1.1 mph WSW1.8 kmh WSW 3.0 mph4.8 kmh 29.96 in1014.6 mb 0.00 in0.0 mm 0.00 in0.0 mm 0.00 in0.0 mm
06:53 AM 60.8°F16.0°C 57.5°F14.2°C 89% 1.7 mph W2.7 kmh W 4.0 mph6.4 kmh 29.97 in1014.9 mb 0.00 in0.0 mm 0.00 in0.0 mm 0.00 in0.0 mm
06:58 AM 61.0°F16.1°C 57.4°F14.1°C 88% 1.2 mph SW1.9 kmh SW 4.0 mph6.4 kmh 29.96 in1014.6 mb 0.00 in0.0 mm 0.00 in0.0 mm 0.00 in0.0 mm
07:03 AM 61.3°F16.3°C 57.7°F14.3°C 88% 1.0 mph SW1.6 kmh SW 4.0 mph6.4 kmh 29.96 in1014.6 mb 0.00 in0.0 mm 0.00 in0.0 mm 0.00 in0.0 mm
07:08 AM 61.6°F16.4°C 57.7°F14.3°C 87% 2.2 mph SW3.5 kmh SW 5.0 mph8.0 kmh 29.97 in1014.9 mb 0.00 in0.0 mm 0.00 in0.0 mm 0.00 in0.0 mm
07:13 AM 61.9°F16.6°C 58.0°F14.4°C 87% 2.1 mph W3.4 kmh W 5.0 mph8.0 kmh 29.97 in1014.9 mb 0.00 in0.0 mm 0.00 in0.0 mm 0.00 in0.0 mm
07:18 AM 62.3°F16.8°C 58.1°F14.5°C 86% 1.4 mph SW2.3 kmh SW 5.0 mph8.0 kmh 29.96 in1014.6 mb 0.00 in0.0 mm 0.00 in0.0 mm 0.00 in0.0 mm
07:23 AM 62.6°F17.0°C 58.4°F14.7°C 86% 1.6 mph SW2.6 kmh SW 5.0 mph8.0 kmh 29.96 in1014.6 mb 0.00 in0.0 mm 0.00 in0.0 mm 0.00 in0.0 mm
07:28 AM 63.2°F17.3°C 59.3°F15.2°C 87% Calm Calm 4.0 mph6.4 kmh 29.96 in1014.6 mb 0.00 in0.0 mm 0.00 in0.0 mm 0.00 in0.0 mm
07:33 AM 63.9°F17.7°C 59.3°F15.2°C 85% Calm Calm 4.0 mph6.4 kmh 29.96 in1014.6 mb 0.00 in0.0 mm 0.00 in0.0 mm 0.00 in0.0 mm
07:38 AM 64.0°F17.8°C 59.4°F15.2°C 85% 1.0 mph W1.6 kmh W 4.0 mph6.4 kmh 29.96 in1014.6 mb 0.00 in0.0 mm 0.00 in0.0 mm 0.00 in0.0 mm
07:43 AM 64.4°F18.0°C 59.8°F15.4°C 85% 1.6 mph SW2.6 kmh SW 2.0 mph3.2 kmh 29.95 in1014.2 mb 0.00 in0.0 mm 0.00 in0.0 mm 0.00 in0.0 mm
07:48 AM 65.0°F18.3°C 60.1°F15.6°C 84% 2.7 mph WSW4.3 kmh WSW 6.0 mph9.7 kmh 29.95 in1014.2 mb 0.00 in0.0 mm 0.00 in0.0 mm 0.00 in0.0 mm
07:53 AM 65.1°F18.4°C 59.8°F15.4°C 83% 2.5 mph W4.0 kmh W 6.0 mph9.7 kmh 29.95 in1014.2 mb 0.00 in0.0 mm 0.00 in0.0 mm 0.00 in0.0 mm
07:58 AM 65.4°F18.6°C 60.5°F15.8°C 84% 1.4 mph WSW2.3 kmh WSW 6.0 mph9.7 kmh 29.95 in1014.2 mb 0.00 in0.0 mm 0.00 in0.0 mm 0.00 in0.0 mm
08:03 AM 65.7°F18.7°C 60.7°F15.9°C 84% 2.3 mph W3.7 kmh W 6.0 mph9.7 kmh 29.95 in1014.2 mb 0.00 in0.0 mm 0.00 in0.0 mm 0.00 in0.0 mm
08:08 AM 66.4°F19.1°C 61.1°F16.2°C 83% 1.3 mph W2.1 kmh W 6.0 mph9.7 kmh 29.95 in1014.2 mb 0.00 in0.0 mm 0.00 in0.0 mm 0.00 in0.0 mm
08:13 AM 67.0°F19.4°C 61.7°F16.5°C 83% Calm Calm 5.0 mph8.0 kmh 29.94 in1013.9 mb 0.00 in0.0 mm 0.00 in0.0 mm 0.00 in0.0 mm
08:18 AM 67.2°F19.6°C 61.2°F16.2°C 81% 1.8 mph SW2.9 kmh SW 5.0 mph8.0 kmh 29.94 in1013.9 mb 0.00 in0.0 mm 0.00 in0.0 mm 0.00 in0.0 mm
08:23 AM 67.4°F19.7°C 61.7°F16.5°C 82% 1.0 mph SW1.6 kmh SW 4.0 mph6.4 kmh 29.94 in1013.9 mb 0.00 in0.0 mm 0.00 in0.0 mm 0.00 in0.0 mm
08:28 AM 67.6°F19.8°C 61.2°F16.2°C 80% 2.7 mph SW4.3 kmh SW 4.0 mph6.4 kmh 29.95 in1014.2 mb 0.00 in0.0 mm 0.00 in0.0 mm 0.00 in0.0 mm
08:32 AM 67.2°F19.6°C 61.2°F16.2°C 81% 3.2 mph SW5.1 kmh SW 8.0 mph12.9 kmh 29.96 in1014.6 mb 0.00 in0.0 mm 0.00 in0.0 mm 0.00 in0.0 mm
08:37 AM 67.1°F19.5°C 61.4°F16.3°C 82% 2.9 mph SW4.7 kmh SW 8.0 mph12.9 kmh 29.95 in1014.2 mb 0.00 in0.0 mm 0.00 in0.0 mm 0.00 in0.0 mm
08:42 AM 66.8°F19.3°C 60.8°F16.0°C 81% 2.3 mph SW3.7 kmh SW 8.0 mph12.9 kmh 29.95 in1014.2 mb 0.00 in0.0 mm 0.00 in0.0 mm 0.00 in0.0 mm
09:15 AM 67.8°F19.9°C 62.2°F16.8°C 82% Calm Calm 5.0 mph8.0 kmh 29.97 in1014.9 mb 0.00 in0.0 mm 0.00 in0.0 mm 0.00 in0.0 mm
09:20 AM 68.3°F20.2°C 62.9°F17.2°C 83% 1.0 mph SE1.6 kmh SE 5.0 mph8.0 kmh 29.96 in1014.6 mb 0.00 in0.0 mm 0.00 in0.0 mm 0.00 in0.0 mm
09:25 AM 69.4°F20.8°C 63.4°F17.4°C 81% 1.6 mph SW2.6 kmh SW 5.0 mph8.0 kmh 29.97 in1014.9 mb 0.00 in0.0 mm 0.00 in0.0 mm 0.00 in0.0 mm
09:30 AM 69.9°F21.1°C 63.5°F17.5°C 80% 2.0 mph SSW3.2 kmh SSW 5.0 mph8.0 kmh 29.97 in1014.9 mb 0.00 in0.0 mm 0.00 in0.0 mm 0.00 in0.0 mm
09:35 AM 70.1°F21.2°C 63.7°F17.6°C 80% 1.0 mph WSW1.6 kmh WSW 4.0 mph6.4 kmh 29.97 in1014.9 mb 0.00 in0.0 mm 0.00 in0.0 mm 0.00 in0.0 mm
09:40 AM 71.3°F21.8°C 64.5°F18.1°C 79% 1.0 mph SSE1.6 kmh SSE 3.0 mph4.8 kmh 29.97 in1014.9 mb 0.00 in0.0 mm 0.00 in0.0 mm 0.00 in0.0 mm
09:45 AM 71.5°F21.9°C 63.5°F17.5°C 76% 2.4 mph WSW3.9 kmh WSW 4.0 mph6.4 kmh 29.96 in1014.6 mb 0.00 in0.0 mm 0.00 in0.0 mm 0.00 in0.0 mm
09:50 AM 71.5°F21.9°C 63.3°F17.4°C 75% 2.3 mph S3.7 kmh S 5.0 mph8.0 kmh 29.96 in1014.6 mb 0.00 in0.0 mm 0.00 in0.0 mm 0.00 in0.0 mm
09:55 AM 71.8°F22.1°C 63.6°F17.6°C 75% 1.0 mph WSW1.6 kmh WSW 5.0 mph8.0 kmh 29.96 in1014.6 mb 0.00 in0.0 mm 0.00 in0.0 mm 0.00 in0.0 mm
10:00 AM 72.2°F22.3°C 63.6°F17.6°C 74% 2.4 mph SSW3.9 kmh SSW 5.0 mph8.0 kmh 29.95 in1014.2 mb 0.00 in0.0 mm 0.00 in0.0 mm 0.00 in0.0 mm
10:05 AM 72.4°F22.4°C 63.4°F17.4°C 73% 2.2 mph S3.5 kmh S 5.0 mph8.0 kmh 29.95 in1014.2 mb 0.00 in0.0 mm 0.00 in0.0 mm 0.00 in0.0 mm
10:10 AM 72.6°F22.6°C 62.8°F17.1°C 71% 2.8 mph SW4.5 kmh SW 6.0 mph9.7 kmh 29.95 in1014.2 mb 0.00 in0.0 mm 0.00 in0.0 mm 0.00 in0.0 mm
10:15 AM 72.9°F22.7°C 63.9°F17.7°C 73% 1.0 mph SSW1.6 kmh SSW 6.0 mph9.7 kmh 29.95 in1014.2 mb 0.00 in0.0 mm 0.00 in0.0 mm 0.00 in0.0 mm
10:20 AM 73.4°F23.0°C 63.8°F17.7°C 72% 2.2 mph SW3.5 kmh SW 6.0 mph9.7 kmh 29.96 in1014.6 mb 0.00 in0.0 mm 0.00 in0.0 mm 0.00 in0.0 mm
10:25 AM 74.0°F23.3°C 64.0°F17.8°C 71% 2.3 mph SW3.7 kmh SW 6.0 mph9.7 kmh 29.96 in1014.6 mb 0.00 in0.0 mm 0.00 in0.0 mm 0.00 in0.0 mm
10:30 AM 74.2°F23.4°C 63.4°F17.4°C 69% 1.3 mph WSW2.1 kmh WSW 5.0 mph8.0 kmh 29.95 in1014.2 mb 0.00 in0.0 mm 0.00 in0.0 mm 0.00 in0.0 mm
10:35 AM 74.2°F23.4°C 63.4°F17.4°C 69% 2.0 mph SW3.2 kmh SW 5.0 mph8.0 kmh 29.95 in1014.2 mb 0.00 in0.0 mm 0.00 in0.0 mm 0.00 in0.0 mm
10:40 AM 74.1°F23.4°C 63.5°F17.5°C 69% 1.9 mph SW3.1 kmh SW 5.0 mph8.0 kmh 29.96 in1014.6 mb 0.00 in0.0 mm 0.00 in0.0 mm 0.00 in0.0 mm
10:45 AM 74.3°F23.5°C 64.1°F17.8°C 70% 1.8 mph SE2.9 kmh SE 6.0 mph9.7 kmh 29.95 in1014.2 mb 0.00 in0.0 mm 0.00 in0.0 mm 0.00 in0.0 mm
10:50 AM 74.5°F23.6°C 63.9°F17.7°C 69% 1.8 mph SW2.9 kmh SW 6.0 mph9.7 kmh 29.95 in1014.2 mb 0.00 in0.0 mm 0.00 in0.0 mm 0.00 in0.0 mm
10:55 AM 74.6°F23.7°C 63.1°F17.3°C 67% 2.9 mph S4.7 kmh S 6.0 mph9.7 kmh 29.95 in1014.2 mb 0.00 in0.0 mm 0.00 in0.0 mm 0.00 in0.0 mm
11:00 AM 74.4°F23.6°C 62.5°F16.9°C 66% 3.3 mph S5.3 kmh S 10.0 mph16.1 kmh 29.95 in1014.2 mb 0.00 in0.0 mm 0.00 in0.0 mm 0.00 in0.0 mm
11:05 AM 74.2°F23.4°C 62.3°F16.8°C 66% 4.5 mph SW7.2 kmh SW 10.0 mph16.1 kmh 29.94 in1013.9 mb 0.00 in0.0 mm 0.00 in0.0 mm 0.00 in0.0 mm
11:10 AM 73.9°F23.3°C 62.0°F16.7°C 66% 3.7 mph SW6.0 kmh SW 12.0 mph19.3 kmh 29.94 in1013.9 mb 0.00 in0.0 mm 0.00 in0.0 mm 0.00 in0.0 mm
11:15 AM 74.5°F23.6°C 63.0°F17.2°C 67% 2.3 mph SSW3.7 kmh SSW 12.0 mph19.3 kmh 29.94 in1013.9 mb 0.00 in0.0 mm 0.00 in0.0 mm 0.00 in0.0 mm
11:20 AM 74.9°F23.8°C 62.8°F17.1°C 66% 2.4 mph S3.9 kmh S 12.0 mph19.3 kmh 29.94 in1013.9 mb 0.00 in0.0 mm 0.00 in0.0 mm 0.00 in0.0 mm
11:25 AM 75.1°F23.9°C 62.7°F17.1°C 65% 2.4 mph SSW3.9 kmh SSW 12.0 mph19.3 kmh 29.94 in1013.9 mb 0.00 in0.0 mm 0.00 in0.0 mm 0.00 in0.0 mm
11:30 AM 75.3°F24.1°C 62.5°F16.9°C 64% 2.5 mph SE4.0 kmh SE 7.0 mph11.3 kmh 29.94 in1013.9 mb 0.00 in0.0 mm 0.00 in0.0 mm 0.00 in0.0 mm
11:35 AM 75.4°F24.1°C 62.1°F16.7°C 63% 2.9 mph SSE4.7 kmh SSE 7.0 mph11.3 kmh 29.93 in1013.5 mb 0.00 in0.0 mm 0.00 in0.0 mm 0.00 in0.0 mm
11:40 AM 75.9°F24.4°C 61.7°F16.5°C 61% 1.7 mph S2.7 kmh S 7.0 mph11.3 kmh 29.93 in1013.5 mb 0.00 in0.0 mm 0.00 in0.0 mm 0.00 in0.0 mm
11:45 AM 75.6°F24.2°C 60.9°F16.1°C 60% 3.5 mph SW5.6 kmh SW 9.0 mph14.5 kmh 29.93 in1013.5 mb 0.00 in0.0 mm 0.00 in0.0 mm 0.00 in0.0 mm
11:50 AM 75.4°F24.1°C 62.1°F16.7°C 63% 1.5 mph S2.4 kmh S 9.0 mph14.5 kmh 29.92 in1013.2 mb 0.00 in0.0 mm 0.00 in0.0 mm 0.00 in0.0 mm
11:55 AM 75.5°F24.2°C 61.6°F16.4°C 62% 2.3 mph SSE3.7 kmh SSE 9.0 mph14.5 kmh 29.92 in1013.2 mb 0.00 in0.0 mm 0.00 in0.0 mm 0.00 in0.0 mm
12:00 PM 75.5°F24.2°C 61.8°F16.6°C 62% 1.9 mph SSE3.1 kmh SSE 9.0 mph14.5 kmh 29.92 in1013.2 mb 0.00 in0.0 mm 0.00 in0.0 mm 0.00 in0.0 mm
12:05 PM 75.4°F24.1°C 61.2°F16.2°C 61% 2.9 mph SW4.7 kmh SW 7.0 mph11.3 kmh 29.92 in1013.2 mb 0.00 in0.0 mm 0.00 in0.0 mm 0.00 in0.0 mm
12:10 PM 75.2°F24.0°C 61.5°F16.4°C 62% 3.9 mph SSW6.3 kmh SSW 9.0 mph14.5 kmh 29.92 in1013.2 mb 0.00 in0.0 mm 0.00 in0.0 mm 0.00 in0.0 mm
12:15 PM 75.1°F23.9°C 61.4°F16.3°C 62% 1.6 mph S2.6 kmh S 9.0 mph14.5 kmh 29.91 in1012.9 mb 0.00 in0.0 mm 0.00 in0.0 mm 0.00 in0.0 mm
12:20 PM 75.1°F23.9°C 61.4°F16.3°C 62% 1.0 mph SW1.6 kmh SW 9.0 mph14.5 kmh 29.91 in1012.9 mb 0.00 in0.0 mm 0.00 in0.0 mm 0.00 in0.0 mm
12:25 PM 75.4°F24.1°C 61.9°F16.6°C 63% 1.6 mph SE2.6 kmh SE 9.0 mph14.5 kmh 29.91 in1012.9 mb 0.00 in0.0 mm 0.00 in0.0 mm 0.00 in0.0 mm
12:30 PM 75.4°F24.1°C 61.9°F16.6°C 63% 1.4 mph S2.3 kmh S 10.0 mph16.1 kmh 29.91 in1012.9 mb 0.00 in0.0 mm 0.00 in0.0 mm 0.00 in0.0 mm
12:35 PM 75.3°F24.1°C 62.1°F16.7°C 63% 1.5 mph S2.4 kmh S 10.0 mph16.1 kmh 29.91 in1012.9 mb 0.00 in0.0 mm 0.00 in0.0 mm 0.00 in0.0 mm
12:40 PM 75.1°F23.9°C 60.5°F15.8°C 60% 2.3 mph SSW3.7 kmh SSW 10.0 mph16.1 kmh 29.90 in1012.5 mb 0.00 in0.0 mm 0.00 in0.0 mm 0.00 in0.0 mm
12:45 PM 74.9°F23.8°C 60.3°F15.7°C 60% 3.3 mph SSW5.3 kmh SSW 10.0 mph16.1 kmh 29.90 in1012.5 mb 0.00 in0.0 mm 0.00 in0.0 mm 0.00 in0.0 mm
12:50 PM 74.9°F23.8°C 60.3°F15.7°C 60% 1.7 mph S2.7 kmh S 10.0 mph16.1 kmh 29.90 in1012.5 mb 0.00 in0.0 mm 0.00 in0.0 mm 0.00 in0.0 mm
12:55 PM 75.1°F23.9°C 60.0°F15.6°C 59% 2.5 mph SSW4.0 kmh SSW 10.0 mph16.1 kmh 29.90 in1012.5 mb 0.00 in0.0 mm 0.00 in0.0 mm 0.00 in0.0 mm
01:00 PM 75.3°F24.1°C 60.2°F15.7°C 59% 2.2 mph SSW3.5 kmh SSW 10.0 mph16.1 kmh 29.90 in1012.5 mb 0.00 in0.0 mm 0.00 in0.0 mm 0.00 in0.0 mm
01:05 PM 75.3°F24.1°C 60.2°F15.7°C 59% 2.7 mph SSE4.3 kmh SSE 9.0 mph14.5 kmh 29.90 in1012.5 mb 0.00 in0.0 mm 0.00 in0.0 mm 0.00 in0.0 mm
01:10 PM 75.3°F24.1°C 60.0°F15.6°C 59% 2.7 mph SSW4.3 kmh SSW 11.0 mph17.7 kmh 29.90 in1012.5 mb 0.00 in0.0 mm 0.00 in0.0 mm 0.00 in0.0 mm
01:15 PM 75.2°F24.0°C 59.9°F15.5°C 59% 3.3 mph SSW5.3 kmh SSW 11.0 mph17.7 kmh 29.90 in1012.5 mb 0.00 in0.0 mm 0.00 in0.0 mm 0.00 in0.0 mm
01:20 PM 75.0°F23.9°C 60.4°F15.8°C 60% 1.9 mph S3.1 kmh S 11.0 mph17.7 kmh 29.90 in1012.5 mb 0.00 in0.0 mm 0.00 in0.0 mm 0.00 in0.0 mm
01:25 PM 75.0°F23.9°C 60.4°F15.8°C 60% 3.0 mph SSW4.8 kmh SSW 11.0 mph17.7 kmh 29.90 in1012.5 mb 0.00 in0.0 mm 0.00 in0.0 mm 0.00 in0.0 mm
01:30 PM 75.0°F23.9°C 59.9°F15.5°C 59% 1.6 mph SSW2.6 kmh SSW 8.0 mph12.9 kmh 29.90 in1012.5 mb 0.00 in0.0 mm 0.00 in0.0 mm 0.00 in0.0 mm
01:35 PM 75.0°F23.9°C 60.4°F15.8°C 60% 3.8 mph SSW6.1 kmh SSW 10.0 mph16.1 kmh 29.91 in1012.9 mb 0.00 in0.0 mm 0.00 in0.0 mm 0.00 in0.0 mm
01:40 PM 75.0°F23.9°C 60.4°F15.8°C 60% 4.4 mph SW7.1 kmh SW 10.0 mph16.1 kmh 29.90 in1012.5 mb 0.00 in0.0 mm 0.00 in0.0 mm 0.00 in0.0 mm
01:45 PM 75.1°F23.9°C 60.9°F16.1°C 61% 3.3 mph SSW5.3 kmh SSW 10.0 mph16.1 kmh 29.90 in1012.5 mb 0.00 in0.0 mm 0.00 in0.0 mm 0.00 in0.0 mm
01:50 PM 75.3°F24.1°C 60.7°F15.9°C 60% 2.7 mph S4.3 kmh S 10.0 mph16.1 kmh 29.90 in1012.5 mb 0.00 in0.0 mm 0.00 in0.0 mm 0.00 in0.0 mm
01:55 PM 75.7°F24.3°C 60.8°F16.0°C 60% 4.3 mph SW6.9 kmh SW 10.0 mph16.1 kmh 29.90 in1012.5 mb 0.00 in0.0 mm 0.00 in0.0 mm 0.00 in0.0 mm
02:00 PM 75.6°F24.2°C 61.4°F16.3°C 61% 2.8 mph SW4.5 kmh SW 10.0 mph16.1 kmh 29.90 in1012.5 mb 0.00 in0.0 mm 0.00 in0.0 mm 0.00 in0.0 mm
02:05 PM 76.0°F24.4°C 62.3°F16.8°C 62% 3.3 mph SW5.3 kmh SW 9.0 mph14.5 kmh 29.90 in1012.5 mb 0.00 in0.0 mm 0.00 in0.0 mm 0.00 in0.0 mm
02:10 PM 76.2°F24.6°C 61.5°F16.4°C 60% 2.1 mph S3.4 kmh S 11.0 mph17.7 kmh 29.89 in1012.2 mb 0.00 in0.0 mm 0.00 in0.0 mm 0.00 in0.0 mm
02:14 PM 76.3°F24.6°C 60.6°F15.9°C 58% 6.2 mph SW10.0 kmh SW 12.0 mph19.3 kmh 29.90 in1012.5 mb 0.00 in0.0 mm 0.00 in0.0 mm 0.00 in0.0 mm
02:19 PM 76.4°F24.7°C 61.2°F16.2°C 59% 3.0 mph SSW4.8 kmh SSW 12.0 mph19.3 kmh 29.89 in1012.2 mb 0.00 in0.0 mm 0.00 in0.0 mm 0.00 in0.0 mm
02:24 PM 76.6°F24.8°C 61.9°F16.6°C 60% 2.1 mph SE3.4 kmh SE 12.0 mph19.3 kmh 29.89 in1012.2 mb 0.00 in0.0 mm 0.00 in0.0 mm 0.00 in0.0 mm
02:29 PM 76.8°F24.9°C 61.1°F16.2°C 58% 1.4 mph SW2.3 kmh SW 12.0 mph19.3 kmh 29.89 in1012.2 mb 0.00 in0.0 mm 0.00 in0.0 mm 0.00 in0.0 mm
02:34 PM 76.6°F24.8°C 61.4°F16.3°C 59% 1.4 mph SW2.3 kmh SW 10.0 mph16.1 kmh 29.89 in1012.2 mb 0.00 in0.0 mm 0.00 in0.0 mm 0.00 in0.0 mm
02:39 PM 76.4°F24.7°C 62.0°F16.7°C 61% 2.0 mph S3.2 kmh S 7.0 mph11.3 kmh 29.89 in1012.2 mb 0.00 in0.0 mm 0.00 in0.0 mm 0.00 in0.0 mm
02:44 PM 76.2°F24.6°C 62.0°F16.7°C 61% 3.7 mph SSW6.0 kmh SSW 8.0 mph12.9 kmh 29.89 in1012.2 mb 0.00 in0.0 mm 0.00 in0.0 mm 0.00 in0.0 mm
02:49 PM 76.2°F24.6°C 62.0°F16.7°C 61% 2.7 mph SSW4.3 kmh SSW 8.0 mph12.9 kmh 29.89 in1012.2 mb 0.00 in0.0 mm 0.00 in0.0 mm 0.00 in0.0 mm
02:54 PM 76.3°F24.6°C 62.5°F16.9°C 62% 3.1 mph SW5.0 kmh SW 8.0 mph12.9 kmh 29.89 in1012.2 mb 0.00 in0.0 mm 0.00 in0.0 mm 0.00 in0.0 mm
02:59 PM 76.6°F24.8°C 61.9°F16.6°C 60% 3.4 mph SSW5.5 kmh SSW 10.0 mph16.1 kmh 29.88 in1011.9 mb 0.00 in0.0 mm 0.00 in0.0 mm 0.00 in0.0 mm
03:04 PM 77.1°F25.1°C 61.9°F16.6°C 59% 4.0 mph SW6.4 kmh SW 16.0 mph25.7 kmh 29.88 in1011.9 mb 0.00 in0.0 mm 0.00 in0.0 mm 0.00 in0.0 mm
03:09 PM 77.4°F25.2°C 62.2°F16.8°C 59% 2.4 mph WSW3.9 kmh WSW 16.0 mph25.7 kmh 29.88 in1011.9 mb 0.00 in0.0 mm 0.00 in0.0 mm 0.00 in0.0 mm
03:14 PM 77.4°F25.2°C 61.2°F16.2°C 57% 5.0 mph SW8.0 kmh SW 16.0 mph25.7 kmh 29.88 in1011.9 mb 0.00 in0.0 mm 0.00 in0.0 mm 0.00 in0.0 mm
03:19 PM 77.3°F25.2°C 60.9°F16.1°C 57% 3.0 mph WSW4.8 kmh WSW 16.0 mph25.7 kmh 29.87 in1011.5 mb 0.00 in0.0 mm 0.00 in0.0 mm 0.00 in0.0 mm
03:24 PM 77.4°F25.2°C 61.5°F16.4°C 58% 2.0 mph SW3.2 kmh SW 14.0 mph22.5 kmh 29.87 in1011.5 mb 0.00 in0.0 mm 0.00 in0.0 mm 0.00 in0.0 mm
03:29 PM 77.2°F25.1°C 61.0°F16.1°C 57% 3.7 mph S6.0 kmh S 14.0 mph22.5 kmh 29.88 in1011.9 mb 0.00 in0.0 mm 0.00 in0.0 mm 0.00 in0.0 mm
03:34 PM 77.0°F25.0°C 60.8°F16.0°C 57% 3.4 mph SW5.5 kmh SW 11.0 mph17.7 kmh 29.88 in1011.9 mb 0.00 in0.0 mm 0.00 in0.0 mm 0.00 in0.0 mm
03:39 PM 77.0°F25.0°C 61.3°F16.3°C 58% 2.5 mph SW4.0 kmh SW 18.0 mph29.0 kmh 29.88 in1011.9 mb 0.00 in0.0 mm 0.00 in0.0 mm 0.00 in0.0 mm
03:44 PM 77.2°F25.1°C 62.0°F16.7°C 59% 6.3 mph SW10.1 kmh SW 18.0 mph29.0 kmh 29.87 in1011.5 mb 0.00 in0.0 mm 0.00 in0.0 mm 0.00 in0.0 mm
03:49 PM 77.3°F25.2°C 61.6°F16.4°C 58% 2.8 mph SW4.5 kmh SW 18.0 mph29.0 kmh 29.87 in1011.5 mb 0.00 in0.0 mm 0.00 in0.0 mm 0.00 in0.0 mm
03:54 PM 77.6°F25.3°C 61.9°F16.6°C 58% 4.1 mph SW6.6 kmh SW 18.0 mph29.0 kmh 29.87 in1011.5 mb 0.00 in0.0 mm 0.00 in0.0 mm 0.00 in0.0 mm
03:59 PM 77.7°F25.4°C 61.5°F16.4°C 57% 2.8 mph SW4.5 kmh SW 13.0 mph20.9 kmh 29.86 in1011.2 mb 0.00 in0.0 mm 0.00 in0.0 mm 0.00 in0.0 mm
04:04 PM 78.1°F25.6°C 62.3°F16.8°C 58% 2.3 mph SSW3.7 kmh SSW 13.0 mph20.9 kmh 29.86 in1011.2 mb 0.00 in0.0 mm 0.00 in0.0 mm 0.00 in0.0 mm
04:09 PM 77.7°F25.4°C 61.5°F16.4°C 57% 2.8 mph SW4.5 kmh SW 12.0 mph19.3 kmh 29.86 in1011.2 mb 0.00 in0.0 mm 0.00 in0.0 mm 0.00 in0.0 mm
04:14 PM 77.3°F25.2°C 61.4°F16.3°C 58% 3.1 mph SW5.0 kmh SW 12.0 mph19.3 kmh 29.86 in1011.2 mb 0.00 in0.0 mm 0.00 in0.0 mm 0.00 in0.0 mm
04:19 PM 77.0°F25.0°C 61.6°F16.4°C 59% 2.5 mph SSW4.0 kmh SSW 7.0 mph11.3 kmh 29.87 in1011.5 mb 0.00 in0.0 mm 0.00 in0.0 mm 0.00 in0.0 mm
04:24 PM 77.0°F25.0°C 62.3°F16.8°C 60% 1.6 mph SW2.6 kmh SW 7.0 mph11.3 kmh 29.87 in1011.5 mb 0.00 in0.0 mm 0.00 in0.0 mm 0.00 in0.0 mm
04:29 PM 76.9°F24.9°C 61.2°F16.2°C 58% 4.2 mph SW6.8 kmh SW 15.0 mph24.1 kmh 29.87 in1011.5 mb 0.00 in0.0 mm 0.00 in0.0 mm 0.00 in0.0 mm
04:34 PM 76.8°F24.9°C 60.6°F15.9°C 57% 3.9 mph SSW6.3 kmh SSW 15.0 mph24.1 kmh 29.87 in1011.5 mb 0.00 in0.0 mm 0.00 in0.0 mm 0.00 in0.0 mm
04:39 PM 76.9°F24.9°C 61.7°F16.5°C 59% 3.7 mph SSW6.0 kmh SSW 15.0 mph24.1 kmh 29.87 in1011.5 mb 0.00 in0.0 mm 0.00 in0.0 mm 0.00 in0.0 mm
04:44 PM 76.8°F24.9°C 61.1°F16.2°C 58% 4.5 mph SW7.2 kmh SW 15.0 mph24.1 kmh 29.87 in1011.5 mb 0.00 in0.0 mm 0.00 in0.0 mm 0.00 in0.0 mm
04:49 PM 76.7°F24.8°C 61.0°F16.1°C 58% 3.0 mph SW4.8 kmh SW 12.0 mph19.3 kmh 29.87 in1011.5 mb 0.00 in0.0 mm 0.00 in0.0 mm 0.00 in0.0 mm
04:54 PM 76.6°F24.8°C 60.9°F16.1°C 58% 3.9 mph SW6.3 kmh SW 12.0 mph19.3 kmh 29.87 in1011.5 mb 0.00 in0.0 mm 0.00 in0.0 mm 0.00 in0.0 mm
04:59 PM 76.4°F24.7°C 61.2°F16.2°C 59% 4.9 mph SW7.9 kmh SW 11.0 mph17.7 kmh 29.87 in1011.5 mb 0.00 in0.0 mm 0.00 in0.0 mm 0.00 in0.0 mm
05:04 PM 76.3°F24.6°C 61.6°F16.4°C 60% 2.6 mph SSW4.2 kmh SSW 11.0 mph17.7 kmh 29.87 in1011.5 mb 0.00 in0.0 mm 0.00 in0.0 mm 0.00 in0.0 mm
05:09 PM 76.2°F24.6°C 61.5°F16.4°C 60% 1.2 mph SSW1.9 kmh SSW 11.0 mph17.7 kmh 29.87 in1011.5 mb 0.00 in0.0 mm 0.00 in0.0 mm 0.00 in0.0 mm
05:14 PM 76.1°F24.5°C 61.4°F16.3°C 60% 2.0 mph S3.2 kmh S 11.0 mph17.7 kmh 29.87 in1011.5 mb 0.00 in0.0 mm 0.00 in0.0 mm 0.00 in0.0 mm
05:19 PM 75.9°F24.4°C 61.5°F16.4°C 61% 1.3 mph SE2.1 kmh SE 7.0 mph11.3 kmh 29.86 in1011.2 mb 0.00 in0.0 mm 0.00 in0.0 mm 0.00 in0.0 mm
05:24 PM 75.6°F24.2°C 61.2°F16.2°C 61% 1.8 mph SW2.9 kmh SW 7.0 mph11.3 kmh 29.86 in1011.2 mb 0.00 in0.0 mm 0.00 in0.0 mm 0.00 in0.0 mm
05:29 PM 75.5°F24.2°C 61.6°F16.4°C 62% 1.8 mph SSW2.9 kmh SSW 7.0 mph11.3 kmh 29.86 in1011.2 mb 0.00 in0.0 mm 0.00 in0.0 mm 0.00 in0.0 mm
05:34 PM 75.3°F24.1°C 61.4°F16.3°C 62% 1.0 mph SW1.6 kmh SW 4.0 mph6.4 kmh 29.86 in1011.2 mb 0.00 in0.0 mm 0.00 in0.0 mm 0.00 in0.0 mm
05:39 PM 75.1°F23.9°C 61.4°F16.3°C 62% 2.7 mph SW4.3 kmh SW 6.0 mph9.7 kmh 29.86 in1011.2 mb 0.00 in0.0 mm 0.00 in0.0 mm 0.00 in0.0 mm
05:44 PM 74.9°F23.8°C 61.0°F16.1°C 62% 1.8 mph SSW2.9 kmh SSW 6.0 mph9.7 kmh 29.86 in1011.2 mb 0.00 in0.0 mm 0.00 in0.0 mm 0.00 in0.0 mm
05:49 PM 74.8°F23.8°C 61.4°F16.3°C 63% 2.3 mph SSW3.7 kmh SSW 6.0 mph9.7 kmh 29.86 in1011.2 mb 0.00 in0.0 mm 0.00 in0.0 mm 0.00 in0.0 mm
05:54 PM 74.7°F23.7°C 61.5°F16.4°C 63% 1.0 mph WSW1.6 kmh WSW 6.0 mph9.7 kmh 29.86 in1011.2 mb 0.00 in0.0 mm 0.00 in0.0 mm 0.00 in0.0 mm
05:59 PM 74.6°F23.7°C 61.8°F16.6°C 64% 1.0 mph SSW1.6 kmh SSW 5.0 mph8.0 kmh 29.86 in1011.2 mb 0.00 in0.0 mm 0.00 in0.0 mm 0.00 in0.0 mm
06:04 PM 74.5°F23.6°C 61.5°F16.4°C 64% 1.9 mph SW3.1 kmh SW 5.0 mph8.0 kmh 29.86 in1011.2 mb 0.00 in0.0 mm 0.00 in0.0 mm 0.00 in0.0 mm
06:09 PM 74.2°F23.4°C 61.5°F16.4°C 64% 1.6 mph WSW2.6 kmh WSW 5.0 mph8.0 kmh 29.86 in1011.2 mb 0.00 in0.0 mm 0.00 in0.0 mm 0.00 in0.0 mm
06:14 PM 74.1°F23.4°C 61.8°F16.6°C 65% 1.9 mph SW3.1 kmh SW 5.0 mph8.0 kmh 29.85 in1010.8 mb 0.00 in0.0 mm 0.00 in0.0 mm 0.00 in0.0 mm
06:19 PM 74.0°F23.3°C 61.7°F16.5°C 65% Calm Calm 7.0 mph11.3 kmh 29.85 in1010.8 mb 0.00 in0.0 mm 0.00 in0.0 mm 0.00 in0.0 mm
06:24 PM 73.8°F23.2°C 61.3°F16.3°C 65% 2.2 mph SW3.5 kmh SW 7.0 mph11.3 kmh 29.85 in1010.8 mb 0.00 in0.0 mm 0.00 in0.0 mm 0.00 in0.0 mm
06:29 PM 73.7°F23.2°C 61.4°F16.3°C 65% 1.2 mph SW1.9 kmh SW 7.0 mph11.3 kmh 29.85 in1010.8 mb 0.00 in0.0 mm 0.00 in0.0 mm 0.00 in0.0 mm
06:34 PM 73.5°F23.1°C 61.7°F16.5°C 66% Calm Calm 5.0 mph8.0 kmh 29.84 in1010.5 mb 0.00 in0.0 mm 0.00 in0.0 mm 0.00 in0.0 mm
06:39 PM 73.2°F22.9°C 61.4°F16.3°C 66% 1.0 mph SSE1.6 kmh SSE 5.0 mph8.0 kmh 29.84 in1010.5 mb 0.00 in0.0 mm 0.00 in0.0 mm 0.00 in0.0 mm
06:44 PM 72.9°F22.7°C 61.5°F16.4°C 67% 2.0 mph SE3.2 kmh SE 2.0 mph3.2 kmh 29.84 in1010.5 mb 0.00 in0.0 mm 0.00 in0.0 mm 0.00 in0.0 mm
06:49 PM 72.7°F22.6°C 61.7°F16.5°C 68% 1.3 mph SE2.1 kmh SE 3.0 mph4.8 kmh 29.84 in1010.5 mb 0.00 in0.0 mm 0.00 in0.0 mm 0.00 in0.0 mm
06:54 PM 72.5°F22.5°C 61.5°F16.4°C 68% 1.0 mph S1.6 kmh S 3.0 mph4.8 kmh 29.85 in1010.8 mb 0.00 in0.0 mm 0.00 in0.0 mm 0.00 in0.0 mm
06:59 PM 72.4°F22.4°C 61.2°F16.2°C 68% 1.8 mph SE2.9 kmh SE 4.0 mph6.4 kmh 29.86 in1011.2 mb 0.00 in0.0 mm 0.00 in0.0 mm 0.00 in0.0 mm
07:04 PM 72.2°F22.3°C 61.5°F16.4°C 69% 1.0 mph SSE1.6 kmh SSE 4.0 mph6.4 kmh 29.86 in1011.2 mb 0.00 in0.0 mm 0.00 in0.0 mm 0.00 in0.0 mm
07:09 PM 72.1°F22.3°C 61.4°F16.3°C 69% 1.1 mph SE1.8 kmh SE 4.0 mph6.4 kmh 29.86 in1011.2 mb 0.00 in0.0 mm 0.00 in0.0 mm 0.00 in0.0 mm
07:13 PM 72.0°F22.2°C 61.3°F16.3°C 69% 2.1 mph SSW3.4 kmh SSW 4.0 mph6.4 kmh 29.86 in1011.2 mb 0.00 in0.0 mm 0.00 in0.0 mm 0.00 in0.0 mm
07:18 PM 71.9°F22.2°C 61.2°F16.2°C 69% 1.0 mph SSW1.6 kmh SSW 5.0 mph8.0 kmh 29.86 in1011.2 mb 0.00 in0.0 mm 0.00 in0.0 mm 0.00 in0.0 mm
07:23 PM 71.8°F22.1°C 61.3°F16.3°C 69% 1.5 mph S2.4 kmh S 5.0 mph8.0 kmh 29.86 in1011.2 mb 0.00 in0.0 mm 0.00 in0.0 mm 0.00 in0.0 mm
07:28 PM 71.6°F22.0°C 61.1°F16.2°C 69% 1.4 mph S2.3 kmh S 5.0 mph8.0 kmh 29.85 in1010.8 mb 0.00 in0.0 mm 0.00 in0.0 mm 0.00 in0.0 mm
07:33 PM 71.5°F21.9°C 61.0°F16.1°C 69% 1.5 mph S2.4 kmh S 5.0 mph8.0 kmh 29.86 in1011.2 mb 0.00 in0.0 mm 0.00 in0.0 mm 0.00 in0.0 mm
07:38 PM 71.5°F21.9°C 61.0°F16.1°C 69% 1.7 mph S2.7 kmh S 6.0 mph9.7 kmh 29.86 in1011.2 mb 0.00 in0.0 mm 0.00 in0.0 mm 0.00 in0.0 mm
07:43 PM 71.3°F21.8°C 60.8°F16.0°C 69% 1.3 mph S2.1 kmh S 6.0 mph9.7 kmh 29.86 in1011.2 mb 0.00 in0.0 mm 0.00 in0.0 mm 0.00 in0.0 mm
07:48 PM 71.3°F21.8°C 60.8°F16.0°C 69% 1.6 mph SSW2.6 kmh SSW 6.0 mph9.7 kmh 29.86 in1011.2 mb 0.00 in0.0 mm 0.00 in0.0 mm 0.00 in0.0 mm
07:53 PM 71.2°F21.8°C 60.7°F15.9°C 69% 1.6 mph SSW2.6 kmh SSW 5.0 mph8.0 kmh 29.87 in1011.5 mb 0.00 in0.0 mm 0.00 in0.0 mm 0.00 in0.0 mm
07:58 PM 71.0°F21.7°C 60.9°F16.1°C 70% 1.6 mph SW2.6 kmh SW 5.0 mph8.0 kmh 29.87 in1011.5 mb 0.00 in0.0 mm 0.00 in0.0 mm 0.00 in0.0 mm
08:03 PM 71.0°F21.7°C 60.9°F16.1°C 70% 1.9 mph SW3.1 kmh SW 5.0 mph8.0 kmh 29.88 in1011.9 mb 0.00 in0.0 mm 0.00 in0.0 mm 0.00 in0.0 mm
08:08 PM 70.9°F21.6°C 61.4°F16.3°C 72% 4.9 mph W7.9 kmh W 12.0 mph19.3 kmh 29.89 in1012.2 mb 0.00 in0.0 mm 0.00 in0.0 mm 0.00 in0.0 mm
08:13 PM 70.2°F21.2°C 61.9°F16.6°C 75% 5.0 mph W8.0 kmh W 15.0 mph24.1 kmh 29.89 in1012.2 mb 0.00 in0.0 mm 0.00 in0.0 mm 0.00 in0.0 mm
08:18 PM 69.3°F20.7°C 61.9°F16.6°C 77% 5.1 mph W8.2 kmh W 15.0 mph24.1 kmh 29.89 in1012.2 mb 0.00 in0.0 mm 0.00 in0.0 mm 0.00 in0.0 mm
08:23 PM 68.2°F20.1°C 61.9°F16.6°C 80% 3.4 mph W5.5 kmh W 15.0 mph24.1 kmh 29.90 in1012.5 mb 0.00 in0.0 mm 0.00 in0.0 mm 0.00 in0.0 mm
08:28 PM 67.3°F19.6°C 61.7°F16.5°C 82% 3.6 mph W5.8 kmh W 15.0 mph24.1 kmh 29.90 in1012.5 mb 0.00 in0.0 mm 0.00 in0.0 mm 0.00 in0.0 mm
08:33 PM 66.5°F19.2°C 61.9°F16.6°C 85% 4.3 mph WNW6.9 kmh WNW 13.0 mph20.9 kmh 29.90 in1012.5 mb 0.00 in0.0 mm 0.00 in0.0 mm 0.00 in0.0 mm
08:38 PM 66.0°F18.9°C 61.7°F16.5°C 86% 4.1 mph W6.6 kmh W 11.0 mph17.7 kmh 29.90 in1012.5 mb 0.00 in0.0 mm 0.00 in0.0 mm 0.00 in0.0 mm
08:43 PM 65.6°F18.7°C 61.0°F16.1°C 85% 4.0 mph WNW6.4 kmh WNW 11.0 mph17.7 kmh 29.90 in1012.5 mb 0.00 in0.0 mm 0.00 in0.0 mm 0.00 in0.0 mm
08:48 PM 65.3°F18.5°C 60.0°F15.6°C 83% 5.4 mph W8.7 kmh W 14.0 mph22.5 kmh 29.91 in1012.9 mb 0.00 in0.0 mm 0.00 in0.0 mm 0.00 in0.0 mm
08:53 PM 65.1°F18.4°C 59.8°F15.4°C 83% 4.4 mph W7.1 kmh W 14.0 mph22.5 kmh 29.91 in1012.9 mb 0.00 in0.0 mm 0.00 in0.0 mm 0.00 in0.0 mm
08:58 PM 64.9°F18.3°C 60.0°F15.6°C 84% 2.4 mph W3.9 kmh W 14.0 mph22.5 kmh 29.91 in1012.9 mb 0.00 in0.0 mm 0.00 in0.0 mm 0.00 in0.0 mm
09:03 PM 64.7°F18.2°C 59.5°F15.3°C 83% 3.4 mph W5.5 kmh W 11.0 mph17.7 kmh 29.90 in1012.5 mb 0.00 in0.0 mm 0.00 in0.0 mm 0.00 in0.0 mm
09:08 PM 64.6°F18.1°C 59.4°F15.2°C 83% 2.9 mph W4.7 kmh W 9.0 mph14.5 kmh 29.90 in1012.5 mb 0.00 in0.0 mm 0.00 in0.0 mm 0.00 in0.0 mm
09:13 PM 64.5°F18.1°C 59.3°F15.2°C 83% 1.5 mph SW2.4 kmh SW 8.0 mph12.9 kmh 29.90 in1012.5 mb 0.00 in0.0 mm 0.00 in0.0 mm 0.00 in0.0 mm
09:19 PM 64.5°F18.1°C 58.9°F14.9°C 82% 2.3 mph WSW3.7 kmh WSW 8.0 mph12.9 kmh 29.90 in1012.5 mb 0.00 in0.0 mm 0.00 in0.0 mm 0.00 in0.0 mm
09:24 PM 64.4°F18.0°C 59.2°F15.1°C 83% 2.3 mph SW3.7 kmh SW 8.0 mph12.9 kmh 29.90 in1012.5 mb 0.00 in0.0 mm 0.00 in0.0 mm 0.00 in0.0 mm
09:29 PM 64.3°F17.9°C 59.1°F15.1°C 83% 3.1 mph SW5.0 kmh SW 8.0 mph12.9 kmh 29.89 in1012.2 mb 0.00 in0.0 mm 0.00 in0.0 mm 0.00 in0.0 mm
09:34 PM 64.3°F17.9°C 58.7°F14.8°C 82% 2.7 mph S4.3 kmh S 8.0 mph12.9 kmh 29.89 in1012.2 mb 0.00 in0.0 mm 0.00 in0.0 mm 0.00 in0.0 mm
09:38 PM 64.3°F17.9°C 58.7°F14.8°C 82% 2.5 mph SW4.0 kmh SW 8.0 mph12.9 kmh 29.89 in1012.2 mb 0.00 in0.0 mm 0.00 in0.0 mm 0.00 in0.0 mm
09:43 PM 64.3°F17.9°C 58.7°F14.8°C 82% 2.5 mph SW4.0 kmh SW 8.0 mph12.9 kmh 29.89 in1012.2 mb 0.00 in0.0 mm 0.00 in0.0 mm 0.00 in0.0 mm
09:48 PM 64.2°F17.9°C 59.0°F15.0°C 83% 1.7 mph SW2.7 kmh SW 7.0 mph11.3 kmh 29.89 in1012.2 mb 0.00 in0.0 mm 0.00 in0.0 mm 0.00 in0.0 mm
09:54 PM 64.0°F17.8°C 58.8°F14.9°C 83% 2.0 mph SW3.2 kmh SW 7.0 mph11.3 kmh 29.89 in1012.2 mb 0.00 in0.0 mm 0.00 in0.0 mm 0.00 in0.0 mm
09:59 PM 63.8°F17.7°C 58.9°F14.9°C 84% 3.1 mph SW5.0 kmh SW 7.0 mph11.3 kmh 29.89 in1012.2 mb 0.00 in0.0 mm 0.00 in0.0 mm 0.00 in0.0 mm
10:04 PM 63.5°F17.5°C 58.9°F14.9°C 85% 3.3 mph SW5.3 kmh SW 8.0 mph12.9 kmh 29.89 in1012.2 mb 0.00 in0.0 mm 0.00 in0.0 mm 0.00 in0.0 mm
10:09 PM 63.3°F17.4°C 59.0°F15.0°C 86% 2.1 mph SSW3.4 kmh SSW 8.0 mph12.9 kmh 29.89 in1012.2 mb 0.00 in0.0 mm 0.00 in0.0 mm 0.00 in0.0 mm
10:14 PM 63.0°F17.2°C 59.1°F15.1°C 87% 2.6 mph SW4.2 kmh SW 8.0 mph12.9 kmh 29.88 in1011.9 mb 0.00 in0.0 mm 0.00 in0.0 mm 0.00 in0.0 mm
10:19 PM 62.7°F17.1°C 59.1°F15.1°C 88% 3.1 mph SW5.0 kmh SW 8.0 mph12.9 kmh 29.88 in1011.9 mb 0.00 in0.0 mm 0.00 in0.0 mm 0.00 in0.0 mm
10:24 PM 62.5°F16.9°C 58.9°F14.9°C 88% 3.2 mph SW5.1 kmh SW 10.0 mph16.1 kmh 29.88 in1011.9 mb 0.00 in0.0 mm 0.00 in0.0 mm 0.00 in0.0 mm
10:29 PM 62.4°F16.9°C 58.8°F14.9°C 88% 3.9 mph SW6.3 kmh SW 10.0 mph16.1 kmh 29.88 in1011.9 mb 0.01 in0.3 mm 0.12 in3.0 mm 0.01 in0.3 mm
10:34 PM 62.2°F16.8°C 58.6°F14.8°C 88% 1.7 mph SW2.7 kmh SW 10.0 mph16.1 kmh 29.88 in1011.9 mb 0.01 in0.3 mm 0.00 in0.0 mm 0.01 in0.3 mm
10:39 PM 62.1°F16.7°C 58.8°F14.9°C 89% 3.2 mph SW5.1 kmh SW 10.0 mph16.1 kmh 29.88 in1011.9 mb 0.01 in0.3 mm 0.00 in0.0 mm 0.01 in0.3 mm
10:44 PM 61.9°F16.6°C 58.9°F14.9°C 90% 1.8 mph SW2.9 kmh SW 10.0 mph16.1 kmh 29.88 in1011.9 mb 0.01 in0.3 mm 0.00 in0.0 mm 0.01 in0.3 mm
10:49 PM 61.8°F16.6°C 58.8°F14.9°C 90% 2.0 mph S3.2 kmh S 10.0 mph16.1 kmh 29.87 in1011.5 mb 0.01 in0.3 mm 0.00 in0.0 mm 0.01 in0.3 mm
10:54 PM 61.6°F16.4°C 58.6°F14.8°C 90% 2.3 mph S3.7 kmh S 10.0 mph16.1 kmh 29.87 in1011.5 mb 0.01 in0.3 mm 0.00 in0.0 mm 0.01 in0.3 mm
10:59 PM 61.5°F16.4°C 58.8°F14.9°C 91% 1.4 mph S2.3 kmh S 9.0 mph14.5 kmh 29.86 in1011.2 mb 0.01 in0.3 mm 0.00 in0.0 mm 0.01 in0.3 mm
11:04 PM 61.4°F16.3°C 58.7°F14.8°C 91% 2.3 mph S3.7 kmh S 7.0 mph11.3 kmh 29.86 in1011.2 mb 0.01 in0.3 mm 0.00 in0.0 mm 0.01 in0.3 mm
11:09 PM 61.3°F16.3°C 58.6°F14.8°C 91% 7.8 mph SE12.6 kmh SE 14.0 mph22.5 kmh 29.83 in1010.2 mb 0.02 in0.5 mm 0.12 in3.0 mm 0.01 in0.3 mm
11:14 PM 61.1°F16.2°C 58.4°F14.7°C 91% 7.0 mph SE11.3 kmh SE 21.0 mph33.8 kmh 29.80 in1009.1 mb 0.02 in0.5 mm 0.00 in0.0 mm 0.01 in0.3 mm
11:19 PM 60.8°F16.0°C 58.4°F14.7°C 92% 2.7 mph SSW4.3 kmh SSW 21.0 mph33.8 kmh 29.83 in1010.2 mb 0.03 in0.8 mm 0.12 in3.0 mm 0.02 in0.5 mm
11:24 PM 60.6°F15.9°C 58.2°F14.6°C 92% 2.9 mph SSW4.7 kmh SSW 21.0 mph33.8 kmh 29.84 in1010.5 mb 0.03 in0.8 mm 0.00 in0.0 mm 0.02 in0.5 mm
11:29 PM 60.4°F15.8°C 58.0°F14.4°C 92% 2.3 mph SSW3.7 kmh SSW 21.0 mph33.8 kmh 29.84 in1010.5 mb 0.02 in0.5 mm 0.00 in0.0 mm 0.02 in0.5 mm
11:34 PM 60.2°F15.7°C 58.1°F14.5°C 93% 1.7 mph S2.7 kmh S 10.0 mph16.1 kmh 29.82 in1009.8 mb 0.02 in0.5 mm 0.00 in0.0 mm 0.02 in0.5 mm
11:39 PM 60.1°F15.6°C 58.0°F14.4°C 93% 2.4 mph S3.9 kmh S 6.0 mph9.7 kmh 29.82 in1009.8 mb 0.02 in0.5 mm 0.00 in0.0 mm 0.02 in0.5 mm
11:44 PM 59.9°F15.5°C 57.8°F14.3°C 93% 1.2 mph S1.9 kmh S 6.0 mph9.7 kmh 29.83 in1010.2 mb 0.02 in0.5 mm 0.00 in0.0 mm 0.02 in0.5 mm
11:49 PM 59.9°F15.5°C 57.8°F14.3°C 93% 2.2 mph SSW3.5 kmh SSW 9.0 mph14.5 kmh 29.84 in1010.5 mb 0.02 in0.5 mm 0.00 in0.0 mm 0.02 in0.5 mm
11:54 PM 59.8°F15.4°C 58.0°F14.4°C 94% 2.6 mph SW4.2 kmh SW 12.0 mph19.3 kmh 29.84 in1010.5 mb 0.02 in0.5 mm 0.00 in0.0 mm 0.02 in0.5 mm
11:59 PM 59.8°F15.4°C 58.0°F14.4°C 94% 1.9 mph S3.1 kmh S 12.0 mph19.3 kmh 29.84 in1010.5 mb 0.02 in0.5 mm 0.00 in0.0 mm 0.02 in0.5 mm